Spacecraft Satellite overpass computed based on SGP4 code. Updated every day at 2:25 LT
Spacecraft : Terra    
         GMT                             Satellite      Satellite     Solar          Solar         Scat ang       
  year-mo-da hr:mn:sc    elevation     azimuth    elevation   azimuth    (bk=180)     
  2019-02-23 07:59:14     11.7             85.8          20.1           135.8         131.4
  2019-02-23 09:37:43     82.7            104.3          28.5           160.8         122.3
  2019-02-23 11:14:53     16.7            303.3          30.0           188.2          78.0
  2019-02-23 19:10:35     23.1             60.7         -29.7           292.9        -999.0
  2019-02-23 20:48:00     55.4            259.4         -42.4           318.5        -999.0
Spacecraft : Aqua    
         GMT                             Satellite      Satellite     Solar          Solar         Scat ang       
  year-mo-da hr:mn:sc    elevation     azimuth    elevation   azimuth    (bk=180)     
  2019-02-23 00:12:49     44.6             98.8         -45.7            31.8        -999.0
  2019-02-23 01:50:23     27.6            297.2         -34.4            60.0        -999.0
  2019-02-23 09:46:08     14.0             54.5          28.9           163.1          81.1
  2019-02-23 11:23:09     81.1             73.9          29.8           190.6         115.5
  2019-02-23 13:01:29     14.6            272.1          23.4           216.8         127.3
  2019-02-23 23:17:22     15.3             88.3         -48.7            11.9        -999.0
Spacecraft : CALIPSO    
         GMT                             Satellite      Satellite     Solar          Solar         Scat ang       
  year-mo-da hr:mn:sc    elevation     azimuth    elevation   azimuth    (bk=180)     
  2019-02-23 01:24:29     54.4            289.9         -37.9            53.3        -999.0
  2019-02-23 10:55:09     36.7             66.1          30.3           182.6          89.6
  2019-02-23 12:32:36     31.3            264.5          25.9           209.5         131.9
Spacecraft : CloudSat    
         GMT                             Satellite      Satellite     Solar          Solar         Scat ang       
  year-mo-da hr:mn:sc    elevation     azimuth    elevation   azimuth    (bk=180)     
  2019-02-23 01:25:08     54.5            289.9         -37.8            53.5        -999.0
  2019-02-23 10:55:48     36.6             66.2          30.3           182.8          89.4
  2019-02-23 12:33:15     31.3            264.5          25.9           209.6         132.0
Spacecraft : ISS    
         GMT                             Satellite      Satellite     Solar          Solar         Scat ang       
  year-mo-da hr:mn:sc    elevation     azimuth    elevation   azimuth    (bk=180)     
  2019-02-23 05:38:16     35.7            149.5           1.1           106.4         127.2
  2019-02-23 07:14:41     75.8            348.6          14.7           125.8          94.1
  2019-02-23 08:51:22     70.0              8.6          25.2           148.5          99.5
  2019-02-23 10:27:51     43.8            207.9          30.2           174.8         150.6